Odell, Oregon
Current Conditions -  °F | °C
As of 2:39 PM on Thursday 18 Dec 2014 (Local Time) from K4S2 Reporting Station
Overcast Overcast  
Wind Chill: 43°   Ceiling: 1100
Heat Index: 43°   Visibility: 10mi
Dew Point: 39°   Wind: 0mph
Humidity: 87%   Direction: NA
Pressure: 29.97"   Gusts: NA
Location:  45.63°N, 121.55°W
Report Text: K4S2 182239Z AUTO 00000KT 10SM SCT007 BKN011 OVC110 06/04 A2997 RMK AO2 SLP164 T00600040
Loading
Personal Weather Stations






























Interactive Weather Map New forecast layout! Learn more

10-Day Weather Forecast

Advertisements
Track Severe Weather on mobile